Darstellungsparameter: Aktuell verwendete Einstellungen:
Skalierung der Graphiken ... ?
xyx+y,   Skalierungsfaktor:      Skalierung: Modus: x, Faktor: 1
Darstellungszeitraum ... ?
Vom - - bis: - -   Zeitraum: 29.03.2018 - 29.03.2018
Min/Max/Avg-Anzeige ... ?
Zeige MMA aktuell
Zeige MMA Monat
Zeige MMA alles
Zeige --A aktuell
Zeige --A Monat
Zeige --A alles
Keine MMA-Anzeige
MMA:
Average (ber die Originaldaten)
MMA-Basis: 23.02.2003 - 30.09.2020
Quicknavigation für Darstellung... ?
Tage:      1T, 2T, 3T, 5T -1T -2T -3T -5T +1T +2T +3T +5T
Wochen: 1W, 2W, 3W -1W -2W -3W +1W +2W +3W
Monate: 1M, 3M, 6M -1M -3M -6M +1M +3M +6M
Jahre:    1J, 3J, 5J, 10J -1J -3J -5J -10J +1J +3J +5J +10J
Nutze für die Darstellung ... ?
Originaldaten oder Mittelwerte auf ...
Stundenbasis Tagesbasis Wochenbasis
Monatsbasis Jahresbasis      Datenbasis: Original-Daten
Darstellen als:
Statistik (Auto) Statistik J:M      Darstellung:
Zur Graphik,    zurück zur Übersicht aller Sensoren.
 
Tabellarische Datenbersicht: ?
 
Sensor: Nr:Datum:Temp:Abs-Feuchte:Windchill:Wind:
Aussen-T/F 1 29-03-2018 00:00:00 6.1 C 6.43 g/m*3 3.72 C 11.3 km/h
2 29-03-2018 00:05:00 6.1 C 6.28 g/m*3 3.18 C 14.5 km/h
3 29-03-2018 00:10:00 6.1 C 6.21 g/m*3 2.73 C 17.7 km/h
4 29-03-2018 00:15:00 6.1 C 6.21 g/m*3 2.35 C 20.9 km/h
5 29-03-2018 00:20:00 6 C 6.17 g/m*3 2.23 C 20.9 km/h
6 29-03-2018 00:25:00 5.8 C 6.02 g/m*3 2.36 C 17.7 km/h
7 29-03-2018 00:30:00 5.8 C 6.02 g/m*3 2.36 C 17.7 km/h
8 29-03-2018 00:35:00 5.7 C 5.98 g/m*3 3.23 C 11.3 km/h
9 29-03-2018 00:40:00 5.6 C 5.94 g/m*3 2.83 C 12.9 km/h
10 29-03-2018 00:45:00 5.5 C 5.97 g/m*3 2.99 C 11.3 km/h
11 29-03-2018 00:50:00 5.4 C 5.93 g/m*3 2.58 C 12.9 km/h
12 29-03-2018 00:55:00 5.4 C 5.93 g/m*3 2.58 C 12.9 km/h
13 29-03-2018 01:00:00 5.3 C 5.89 g/m*3 2.75 C 11.3 km/h
14 29-03-2018 01:05:00 5.3 C 5.89 g/m*3 3.08 C 9.7 km/h
15 29-03-2018 01:10:00 5.3 C 5.89 g/m*3 1.96 C 16.1 km/h
16 29-03-2018 01:15:00 5.2 C 5.78 g/m*3 2.34 C 12.9 km/h
17 29-03-2018 01:20:00 5.2 C 5.78 g/m*3 2.63 C 11.3 km/h
18 29-03-2018 01:25:00 5.2 C 5.85 g/m*3 3.34 C 8.1 km/h
19 29-03-2018 01:30:00 5.1 C 5.81 g/m*3 2.84 C 9.7 km/h
20 29-03-2018 01:35:00 5.1 C 5.81 g/m*3 2.22 C 12.9 km/h
21 29-03-2018 01:40:00 5.1 C 5.88 g/m*3 1.95 C 14.5 km/h
22 29-03-2018 01:45:00 5 C 5.78 g/m*3 1.58 C 16.1 km/h
23 29-03-2018 01:50:00 4.9 C 5.74 g/m*3 1.97 C 12.9 km/h
24 29-03-2018 01:55:00 4.9 C 5.81 g/m*3 2.61 C 9.7 km/h
25 29-03-2018 02:00:00 4.9 C 5.81 g/m*3 2.99 C 8.1 km/h
Sensor: Nr:Datum:Temp:Abs-Feuchte:Windchill:Wind:
Aussen-T/F 26 29-03-2018 02:05:00 4.9 C 5.81 g/m*3 3.48 C 6.4 km/h
27 29-03-2018 02:10:00 4.8 C 5.77 g/m*3 3.36 C 6.4 km/h
28 29-03-2018 02:15:00 4.8 C 5.83 g/m*3 4.8 C 3.2 km/h
29 29-03-2018 02:20:00 4.8 C 5.83 g/m*3 3.36 C 6.4 km/h
30 29-03-2018 02:25:00 4.8 C 5.83 g/m*3 4.8 C 1.6 km/h
31 29-03-2018 02:30:00 4.8 C 5.83 g/m*3 3.36 C 6.4 km/h
32 29-03-2018 02:35:00 4.7 C 5.8 g/m*3 4.7 C 3.2 km/h
33 29-03-2018 02:40:00 4.7 C 5.86 g/m*3 4.7 C 1.6 km/h
34 29-03-2018 02:45:00 4.7 C 5.8 g/m*3 4.7 C 3.2 km/h
35 29-03-2018 02:50:00 4.7 C 5.8 g/m*3 4.7 C 4.8 km/h
36 29-03-2018 02:55:00 4.7 C 5.86 g/m*3 4.7 C 0 km/h
37 29-03-2018 03:00:00 4.7 C 5.86 g/m*3 4.7 C 0 km/h
38 29-03-2018 03:05:00 4.7 C 5.86 g/m*3 4.7 C 3.2 km/h
39 29-03-2018 03:10:00 4.7 C 5.86 g/m*3 3.25 C 6.4 km/h
40 29-03-2018 03:15:00 4.6 C 5.89 g/m*3 4.6 C 3.2 km/h
41 29-03-2018 03:20:00 4.6 C 5.89 g/m*3 4.6 C 1.6 km/h
42 29-03-2018 03:25:00 4.6 C 5.89 g/m*3 4.6 C 3.2 km/h
43 29-03-2018 03:30:00 4.6 C 5.82 g/m*3 4.6 C 4.8 km/h
44 29-03-2018 03:35:00 4.7 C 5.93 g/m*3 4.7 C 4.8 km/h
45 29-03-2018 03:40:00 4.7 C 5.86 g/m*3 4.7 C 4.8 km/h
46 29-03-2018 03:45:00 4.7 C 5.86 g/m*3 3.25 C 6.4 km/h
47 29-03-2018 03:50:00 4.7 C 5.93 g/m*3 4.7 C 3.2 km/h
48 29-03-2018 03:55:00 4.7 C 5.93 g/m*3 4.7 C 3.2 km/h
49 29-03-2018 04:00:00 4.7 C 5.93 g/m*3 4.7 C 0 km/h
50 29-03-2018 04:05:00 4.7 C 5.93 g/m*3 4.7 C 1.6 km/h
Sensor: Nr:Datum:Temp:Abs-Feuchte:Windchill:Wind:
Aussen-T/F 51 29-03-2018 04:10:00 4.6 C 5.89 g/m*3 2.25 C 9.7 km/h
52 29-03-2018 04:15:00 4.6 C 5.89 g/m*3 4.6 C 1.6 km/h
53 29-03-2018 04:20:00 4.6 C 5.89 g/m*3 4.6 C 3.2 km/h
54 29-03-2018 04:25:00 4.6 C 5.89 g/m*3 3.13 C 6.4 km/h
55 29-03-2018 04:30:00 4.6 C 5.89 g/m*3 4.6 C 1.6 km/h
56 29-03-2018 04:35:00 4.6 C 5.89 g/m*3 4.6 C 4.8 km/h
57 29-03-2018 04:40:00 4.6 C 5.89 g/m*3 3.13 C 6.4 km/h
58 29-03-2018 04:45:00 4.6 C 5.89 g/m*3 4.6 C 4.8 km/h
59 29-03-2018 04:50:00 4.6 C 5.82 g/m*3 2.64 C 8.1 km/h
60 29-03-2018 04:55:00 4.7 C 5.86 g/m*3 3.25 C 6.4 km/h
61 29-03-2018 05:00:00 4.7 C 5.86 g/m*3 4.7 C 1.6 km/h
62 29-03-2018 05:05:00 4.7 C 5.93 g/m*3 4.7 C 4.8 km/h
63 29-03-2018 05:10:00 4.7 C 5.93 g/m*3 4.7 C 3.2 km/h
64 29-03-2018 05:15:00 4.7 C 5.93 g/m*3 4.7 C 1.6 km/h
65 29-03-2018 05:20:00 4.7 C 5.93 g/m*3 4.7 C 4.8 km/h
66 29-03-2018 05:25:00 4.7 C 5.93 g/m*3 4.7 C 3.2 km/h
67 29-03-2018 05:30:00 4.7 C 5.93 g/m*3 3.25 C 6.4 km/h
68 29-03-2018 05:35:00 4.7 C 5.93 g/m*3 4.7 C 4.8 km/h
69 29-03-2018 05:40:00 4.7 C 5.93 g/m*3 3.25 C 6.4 km/h
70 29-03-2018 05:45:00 4.7 C 5.93 g/m*3 3.25 C 6.4 km/h
71 29-03-2018 05:50:00 4.7 C 5.93 g/m*3 4.7 C 4.8 km/h
72 29-03-2018 05:55:00 4.7 C 5.93 g/m*3 4.7 C 4.8 km/h
73 29-03-2018 06:00:00 4.7 C 5.93 g/m*3 3.25 C 6.4 km/h
74 29-03-2018 06:05:00 4.7 C 5.93 g/m*3 2.76 C 8.1 km/h
75 29-03-2018 06:10:00 4.7 C 5.93 g/m*3 4.7 C 3.2 km/h
Sensor: Nr:Datum:Temp:Abs-Feuchte:Windchill:Wind:
Aussen-T/F 76 29-03-2018 06:15:00 4.7 C 5.93 g/m*3 4.7 C 1.6 km/h
77 29-03-2018 06:20:00 4.7 C 5.93 g/m*3 4.7 C 1.6 km/h
78 29-03-2018 06:25:00 4.7 C 5.93 g/m*3 4.7 C 4.8 km/h
79 29-03-2018 06:30:00 4.7 C 6 g/m*3 4.7 C 1.6 km/h
80 29-03-2018 06:35:00 4.7 C 6 g/m*3 4.7 C 3.2 km/h
81 29-03-2018 06:40:00 4.7 C 6 g/m*3 3.25 C 6.4 km/h
82 29-03-2018 06:45:00 4.7 C 6 g/m*3 4.7 C 4.8 km/h
83 29-03-2018 06:50:00 4.7 C 5.93 g/m*3 4.7 C 4.8 km/h
84 29-03-2018 06:55:00 4.7 C 5.93 g/m*3 2.76 C 8.1 km/h
85 29-03-2018 07:00:00 4.7 C 5.93 g/m*3 2.76 C 8.1 km/h
86 29-03-2018 07:05:00 4.7 C 5.86 g/m*3 3.25 C 6.4 km/h
87 29-03-2018 07:10:00 4.8 C 5.9 g/m*3 3.36 C 6.4 km/h
88 29-03-2018 07:15:00 4.8 C 5.9 g/m*3 4.8 C 3.2 km/h
89 29-03-2018 07:20:00 4.8 C 5.9 g/m*3 4.8 C 3.2 km/h
90 29-03-2018 07:25:00 4.8 C 5.9 g/m*3 4.8 C 3.2 km/h
91 29-03-2018 07:30:00 4.8 C 5.97 g/m*3 4.8 C 4.8 km/h
92 29-03-2018 07:35:00 4.8 C 5.9 g/m*3 3.36 C 6.4 km/h
93 29-03-2018 07:40:00 4.8 C 5.9 g/m*3 3.36 C 6.4 km/h
94 29-03-2018 07:45:00 4.8 C 5.9 g/m*3 3.36 C 6.4 km/h
95 29-03-2018 07:50:00 4.8 C 5.9 g/m*3 4.8 C 3.2 km/h
96 29-03-2018 07:55:00 4.8 C 5.9 g/m*3 4.8 C 4.8 km/h
97 29-03-2018 08:00:00 4.8 C 5.9 g/m*3 4.8 C 4.8 km/h
98 29-03-2018 08:05:00 4.8 C 5.9 g/m*3 3.36 C 6.4 km/h
99 29-03-2018 08:10:00 4.9 C 5.94 g/m*3 2.27 C 11.3 km/h
100 29-03-2018 08:15:00 4.9 C 5.94 g/m*3 4.9 C 3.2 km/h
Sensor: Nr:Datum:Temp:Abs-Feuchte:Windchill:Wind:
Aussen-T/F 101 29-03-2018 08:20:00 4.9 C 5.94 g/m*3 4.9 C 4.8 km/h
102 29-03-2018 08:25:00 4.9 C 5.94 g/m*3 4.9 C 1.6 km/h
103 29-03-2018 08:30:00 4.9 C 5.94 g/m*3 4.9 C 1.6 km/h
104 29-03-2018 08:35:00 4.9 C 5.94 g/m*3 4.9 C 1.6 km/h
105 29-03-2018 08:40:00 4.8 C 5.9 g/m*3 4.8 C 1.6 km/h
106 29-03-2018 08:45:00 4.8 C 5.97 g/m*3 4.8 C 4.8 km/h
107 29-03-2018 08:50:00 4.7 C 5.93 g/m*3 4.7 C 3.2 km/h
108 29-03-2018 08:55:00 4.6 C 5.89 g/m*3 4.6 C 3.2 km/h
109 29-03-2018 09:00:00 4.6 C 5.89 g/m*3 4.6 C 3.2 km/h
110 29-03-2018 09:05:00 4.6 C 5.89 g/m*3 3.13 C 6.4 km/h
111 29-03-2018 09:10:00 4.8 C 5.9 g/m*3 2.15 C 11.3 km/h
112 29-03-2018 09:15:00 5.1 C 5.88 g/m*3 3.23 C 8.1 km/h
113 29-03-2018 09:20:00 5.3 C 5.89 g/m*3 2.2 C 14.5 km/h
114 29-03-2018 09:25:00 5.4 C 5.86 g/m*3 3.2 C 9.7 km/h
115 29-03-2018 09:30:00 5.6 C 5.94 g/m*3 3.11 C 11.3 km/h
116 29-03-2018 09:35:00 5.7 C 5.98 g/m*3 3.93 C 8.1 km/h
117 29-03-2018 09:40:00 5.7 C 5.91 g/m*3 2.45 C 16.1 km/h
118 29-03-2018 09:45:00 5.9 C 5.98 g/m*3 2.48 C 17.7 km/h
119 29-03-2018 09:50:00 6.1 C 5.99 g/m*3 3.18 C 14.5 km/h
120 29-03-2018 09:55:00 6.3 C 6 g/m*3 3.43 C 14.5 km/h
121 29-03-2018 10:00:00 6.3 C 6 g/m*3 3.96 C 11.3 km/h
122 29-03-2018 10:05:00 6.4 C 6.04 g/m*3 3.8 C 12.9 km/h
123 29-03-2018 10:10:00 6.4 C 6.04 g/m*3 3.11 C 17.7 km/h
124 29-03-2018 10:15:00 6.5 C 5.92 g/m*3 4.2 C 11.3 km/h
125 29-03-2018 10:20:00 6.6 C 6.04 g/m*3 4.63 C 9.7 km/h
Sensor: Nr:Datum:Temp:Abs-Feuchte:Windchill:Wind:
Aussen-T/F 126 29-03-2018 10:25:00 6.7 C 6 g/m*3 3.48 C 17.7 km/h
127 29-03-2018 10:30:00 6.8 C 6.04 g/m*3 3.82 C 16.1 km/h
128 29-03-2018 10:35:00 6.9 C 6 g/m*3 3.54 C 19.3 km/h
129 29-03-2018 10:40:00 7.1 C 6.01 g/m*3 4.65 C 12.9 km/h
130 29-03-2018 10:45:00 7.2 C 5.81 g/m*3 3.28 C 25.7 km/h
131 29-03-2018 10:50:00 7.3 C 5.93 g/m*3 4.66 C 14.5 km/h
132 29-03-2018 10:55:00 7.5 C 6 g/m*3 5.14 C 12.9 km/h
133 29-03-2018 11:00:00 7.7 C 6 g/m*3 5.15 C 14.5 km/h
134 29-03-2018 11:05:00 7.7 C 6 g/m*3 4.73 C 17.7 km/h
135 29-03-2018 11:10:00 7.8 C 6.12 g/m*3 5.51 C 12.9 km/h
136 29-03-2018 11:15:00 7.8 C 5.96 g/m*3 4.51 C 20.9 km/h
137 29-03-2018 11:20:00 7.9 C 6 g/m*3 5.39 C 14.5 km/h
138 29-03-2018 11:25:00 7.9 C 6.08 g/m*3 4.8 C 19.3 km/h
139 29-03-2018 11:30:00 7.9 C 6 g/m*3 4.98 C 17.7 km/h
140 29-03-2018 11:35:00 8 C 6.04 g/m*3 5.11 C 17.7 km/h
141 29-03-2018 11:40:00 8 C 5.87 g/m*3 4.17 C 27.4 km/h
142 29-03-2018 11:45:00 8.1 C 5.99 g/m*3 5.23 C 17.7 km/h
143 29-03-2018 11:50:00 8.1 C 5.99 g/m*3 5.23 C 17.7 km/h
144 29-03-2018 11:55:00 8.2 C 5.95 g/m*3 5.36 C 17.7 km/h
145 29-03-2018 12:00:00 8.1 C 5.99 g/m*3 5.05 C 19.3 km/h
146 29-03-2018 12:05:00 8.2 C 5.95 g/m*3 5.36 C 17.7 km/h
147 29-03-2018 12:10:00 8.4 C 6.02 g/m*3 5.61 C 17.7 km/h
148 29-03-2018 12:15:00 8.5 C 5.89 g/m*3 5.92 C 16.1 km/h
149 29-03-2018 12:20:00 8.6 C 6.1 g/m*3 6.25 C 14.5 km/h
150 29-03-2018 12:25:00 8.7 C 6.05 g/m*3 6.17 C 16.1 km/h
Sensor: Nr:Datum:Temp:Abs-Feuchte:Windchill:Wind:
Aussen-T/F 151 29-03-2018 12:30:00 8.7 C 6.05 g/m*3 6.85 C 11.3 km/h
152 29-03-2018 12:35:00 8.7 C 5.79 g/m*3 5.98 C 17.7 km/h
153 29-03-2018 12:40:00 8.7 C 5.97 g/m*3 6.17 C 16.1 km/h
154 29-03-2018 12:45:00 8.8 C 5.92 g/m*3 5.93 C 19.3 km/h
155 29-03-2018 12:50:00 8.9 C 5.87 g/m*3 5.75 C 22.5 km/h
156 29-03-2018 12:55:00 9.1 C 5.86 g/m*3 6.31 C 19.3 km/h
157 29-03-2018 13:00:00 9.2 C 5.98 g/m*3 6.44 C 19.3 km/h
158 29-03-2018 13:05:00 9.3 C 5.84 g/m*3 6.56 C 19.3 km/h
159 29-03-2018 13:10:00 9.3 C 5.66 g/m*3 6.41 C 20.9 km/h
160 29-03-2018 13:15:00 9.4 C 5.7 g/m*3 7.46 C 12.9 km/h
161 29-03-2018 13:20:00 9.4 C 5.61 g/m*3 7.46 C 12.9 km/h
162 29-03-2018 13:25:00 9.5 C 5.92 g/m*3 7.36 C 14.5 km/h
163 29-03-2018 13:30:00 9.4 C 5.7 g/m*3 8.28 C 8.1 km/h
164 29-03-2018 13:35:00 9.3 C 5.66 g/m*3 6.92 C 16.1 km/h
165 29-03-2018 13:40:00 9.3 C 5.75 g/m*3 8.16 C 8.1 km/h
166 29-03-2018 13:45:00 9.4 C 5.7 g/m*3 7.46 C 12.9 km/h
167 29-03-2018 13:50:00 9.7 C 5.99 g/m*3 8.06 C 11.3 km/h
168 29-03-2018 13:55:00 9.8 C 5.85 g/m*3 7.73 C 14.5 km/h
169 29-03-2018 14:00:00 9.8 C 5.66 g/m*3 7.94 C 12.9 km/h
170 29-03-2018 14:05:00 9.8 C 5.66 g/m*3 8.45 C 9.7 km/h
171 29-03-2018 14:10:00 9.9 C 5.88 g/m*3 7.66 C 16.1 km/h
172 29-03-2018 14:15:00 10.2 C 5.61 g/m*3 8.03 C 16.1 km/h
173 29-03-2018 14:20:00 10.3 C 5.55 g/m*3 8.78 C 11.3 km/h
174 29-03-2018 14:25:00 10.5 C 5.53 g/m*3 8.59 C 14.5 km/h
175 29-03-2018 14:30:00 10.8 C 5.44 g/m*3 8.78 C 16.1 km/h
Sensor: Nr:Datum:Temp:Abs-Feuchte:Windchill:Wind:
Aussen-T/F 176 29-03-2018 14:35:00 10.9 C 5.57 g/m*3 8.9 C 16.1 km/h
177 29-03-2018 14:40:00 11.2 C 5.47 g/m*3 11.2 C 16.1 km/h
178 29-03-2018 14:45:00 11.2 C 5.47 g/m*3 11.2 C 12.9 km/h
179 29-03-2018 14:50:00 11.1 C 5.24 g/m*3 11.1 C 16.1 km/h
180 29-03-2018 14:55:00 10.8 C 5.34 g/m*3 8.96 C 14.5 km/h
181 29-03-2018 15:00:00 10.9 C 5.47 g/m*3 8.58 C 19.3 km/h
182 29-03-2018 15:05:00 11.1 C 5.74 g/m*3 11.1 C 16.1 km/h
183 29-03-2018 15:10:00 11.2 C 5.47 g/m*3 11.2 C 14.5 km/h
184 29-03-2018 15:15:00 11.2 C 5.47 g/m*3 11.2 C 16.1 km/h
185 29-03-2018 15:20:00 11.1 C 5.64 g/m*3 11.1 C 11.3 km/h
186 29-03-2018 15:25:00 11.1 C 5.54 g/m*3 11.1 C 16.1 km/h
187 29-03-2018 15:30:00 11.1 C 5.04 g/m*3 11.1 C 14.5 km/h
188 29-03-2018 15:35:00 10.8 C 5.34 g/m*3 9.93 C 8.1 km/h
189 29-03-2018 15:40:00 10.5 C 5.33 g/m*3 9.57 C 8.1 km/h
190 29-03-2018 15:45:00 10.2 C 5.33 g/m*3 9.22 C 8.1 km/h
191 29-03-2018 15:50:00 10 C 5.54 g/m*3 10 C 4.8 km/h
192 29-03-2018 15:55:00 9.9 C 5.51 g/m*3 8.3 C 11.3 km/h
193 29-03-2018 16:00:00 10 C 5.54 g/m*3 8.99 C 8.1 km/h
194 29-03-2018 16:05:00 10.2 C 5.61 g/m*3 8.66 C 11.3 km/h
195 29-03-2018 16:10:00 10.2 C 5.71 g/m*3 9.6 C 6.4 km/h
196 29-03-2018 16:15:00 10.4 C 5.88 g/m*3 9.16 C 9.7 km/h
197 29-03-2018 16:20:00 10.6 C 5.76 g/m*3 9.69 C 8.1 km/h
198 29-03-2018 16:25:00 10.9 C 5.67 g/m*3 9.76 C 9.7 km/h
199 29-03-2018 16:30:00 11 C 5.61 g/m*3 9.63 C 11.3 km/h
200 29-03-2018 16:35:00 11.1 C 5.74 g/m*3 11.1 C 3.2 km/h
Sensor: Nr:Datum:Temp:Abs-Feuchte:Windchill:Wind:
Aussen-T/F 201 29-03-2018 16:40:00 11.3 C 5.71 g/m*3 11.3 C 8.1 km/h
202 29-03-2018 16:45:00 11.4 C 5.85 g/m*3 11.4 C 9.7 km/h
203 29-03-2018 16:50:00 11.5 C 5.68 g/m*3 11.5 C 4.8 km/h
204 29-03-2018 16:55:00 11.4 C 5.65 g/m*3 11.4 C 6.4 km/h
205 29-03-2018 17:00:00 11.4 C 5.54 g/m*3 11.4 C 9.7 km/h
206 29-03-2018 17:05:00 11.6 C 5.4 g/m*3 11.6 C 11.3 km/h
207 29-03-2018 17:10:00 11.9 C 5.61 g/m*3 11.9 C 8.1 km/h
208 29-03-2018 17:15:00 12.1 C 5.36 g/m*3 12.1 C 9.7 km/h
209 29-03-2018 17:20:00 11.8 C 5.37 g/m*3 11.8 C 11.3 km/h
210 29-03-2018 17:25:00 12 C 5.65 g/m*3 12 C 6.4 km/h
211 29-03-2018 17:30:00 12.3 C 5.43 g/m*3 12.3 C 8.1 km/h
212 29-03-2018 17:35:00 12.7 C 5.45 g/m*3 12.7 C 11.3 km/h
213 29-03-2018 17:40:00 12.8 C 5.6 g/m*3 12.8 C 12.9 km/h
214 29-03-2018 17:45:00 12.9 C 5.64 g/m*3 12.9 C 12.9 km/h
215 29-03-2018 17:50:00 13 C 5.56 g/m*3 13 C 16.1 km/h
216 29-03-2018 17:55:00 12.9 C 5.3 g/m*3 12.9 C 16.1 km/h
217 29-03-2018 18:00:00 12.8 C 5.38 g/m*3 12.8 C 9.7 km/h
218 29-03-2018 18:05:00 12.6 C 5.31 g/m*3 12.6 C 6.4 km/h
219 29-03-2018 18:10:00 12.5 C 5.39 g/m*3 12.5 C 12.9 km/h
220 29-03-2018 18:15:00 12.7 C 5.23 g/m*3 12.7 C 12.9 km/h
221 29-03-2018 18:20:00 12.7 C 5.45 g/m*3 12.7 C 9.7 km/h
222 29-03-2018 18:25:00 12.8 C 5.26 g/m*3 12.8 C 9.7 km/h
223 29-03-2018 18:30:00 12.9 C 5.41 g/m*3 12.9 C 8.1 km/h
224 29-03-2018 18:35:00 13.1 C 5.36 g/m*3 13.1 C 9.7 km/h
225 29-03-2018 18:40:00 13.1 C 5.48 g/m*3 13.1 C 11.3 km/h
Sensor: Nr:Datum:Temp:Abs-Feuchte:Windchill:Wind:
Aussen-T/F 226 29-03-2018 18:45:00 13.1 C 5.25 g/m*3 13.1 C 9.7 km/h
227 29-03-2018 18:50:00 13.1 C 5.71 g/m*3 13.1 C 9.7 km/h
228 29-03-2018 18:55:00 12.9 C 5.41 g/m*3 12.9 C 11.3 km/h
229 29-03-2018 19:00:00 12.6 C 5.42 g/m*3 12.6 C 14.5 km/h
230 29-03-2018 19:05:00 12.4 C 5.24 g/m*3 12.4 C 11.3 km/h
231 29-03-2018 19:10:00 12.3 C 5.43 g/m*3 12.3 C 8.1 km/h
232 29-03-2018 19:15:00 12 C 5.44 g/m*3 12 C 11.3 km/h
233 29-03-2018 19:20:00 11.8 C 5.68 g/m*3 11.8 C 9.7 km/h
234 29-03-2018 19:25:00 11.7 C 5.75 g/m*3 11.7 C 3.2 km/h
235 29-03-2018 19:30:00 11.3 C 5.61 g/m*3 11.3 C 1.6 km/h
236 29-03-2018 19:35:00 10.8 C 5.93 g/m*3 10.8 C 3.2 km/h
237 29-03-2018 19:40:00 10.2 C 6 g/m*3 10.2 C 3.2 km/h
238 29-03-2018 19:45:00 9.5 C 5.92 g/m*3 9.5 C 0 km/h
239 29-03-2018 19:50:00 8.9 C 5.96 g/m*3 8.9 C 0 km/h
240 29-03-2018 19:55:00 8.3 C 5.98 g/m*3 7.41 C 6.4 km/h
241 29-03-2018 20:00:00 7.8 C 5.96 g/m*3 7.8 C 4.8 km/h
242 29-03-2018 20:05:00 7.3 C 5.85 g/m*3 7.3 C 4.8 km/h
243 29-03-2018 20:10:00 7.1 C 5.85 g/m*3 7.1 C 1.6 km/h
244 29-03-2018 20:15:00 6.8 C 5.81 g/m*3 6.8 C 4.8 km/h
245 29-03-2018 20:20:00 6.5 C 5.85 g/m*3 6.5 C 4.8 km/h
246 29-03-2018 20:25:00 6.3 C 5.77 g/m*3 6.3 C 4.8 km/h
247 29-03-2018 20:30:00 6.2 C 5.81 g/m*3 6.2 C 4.8 km/h
248 29-03-2018 20:35:00 6 C 5.73 g/m*3 6 C 4.8 km/h
249 29-03-2018 20:40:00 5.9 C 5.77 g/m*3 5.9 C 4.8 km/h
250 29-03-2018 20:45:00 5.8 C 5.73 g/m*3 5.8 C 4.8 km/h
Sensor: Nr:Datum:Temp:Abs-Feuchte:Windchill:Wind:
Aussen-T/F 251 29-03-2018 20:50:00 5.8 C 5.73 g/m*3 5.8 C 4.8 km/h
252 29-03-2018 20:55:00 5.7 C 5.76 g/m*3 5.7 C 4.8 km/h
253 29-03-2018 21:00:00 5.7 C 5.69 g/m*3 5.7 C 4.8 km/h
254 29-03-2018 21:05:00 5.7 C 5.76 g/m*3 5.7 C 4.8 km/h
255 29-03-2018 21:10:00 5.6 C 5.73 g/m*3 5.6 C 4.8 km/h
256 29-03-2018 21:15:00 5.6 C 5.73 g/m*3 5.6 C 4.8 km/h
257 29-03-2018 21:20:00 5.5 C 5.69 g/m*3 5.5 C 4.8 km/h
258 29-03-2018 21:25:00 5.3 C 5.61 g/m*3 5.3 C 4.8 km/h
259 29-03-2018 21:30:00 5.3 C 5.68 g/m*3 5.3 C 4.8 km/h
260 29-03-2018 21:35:00 5.2 C 5.65 g/m*3 5.2 C 4.8 km/h
261 29-03-2018 21:40:00 5.1 C 5.61 g/m*3 5.1 C 4.8 km/h
262 29-03-2018 21:45:00 5.1 C 5.68 g/m*3 5.1 C 4.8 km/h
263 29-03-2018 21:50:00 5.1 C 5.68 g/m*3 5.1 C 4.8 km/h
264 29-03-2018 21:55:00 4.9 C 5.6 g/m*3 4.9 C 4.8 km/h
265 29-03-2018 22:00:00 4.9 C 5.6 g/m*3 4.9 C 4.8 km/h
266 29-03-2018 22:05:00 4.8 C 5.63 g/m*3 4.8 C 4.8 km/h
267 29-03-2018 22:10:00 4.8 C 5.63 g/m*3 4.8 C 4.8 km/h
268 29-03-2018 22:15:00 4.7 C 5.66 g/m*3 4.7 C 3.2 km/h
269 29-03-2018 22:20:00 4.7 C 5.66 g/m*3 4.7 C 4.8 km/h
270 29-03-2018 22:25:00 4.7 C 5.66 g/m*3 4.7 C 4.8 km/h
271 29-03-2018 22:30:00 4.7 C 5.66 g/m*3 4.7 C 4.8 km/h
272 29-03-2018 22:35:00 4.6 C 5.62 g/m*3 4.6 C 3.2 km/h
273 29-03-2018 22:40:00 4.6 C 5.62 g/m*3 4.6 C 3.2 km/h
274 29-03-2018 22:45:00 4.4 C 5.62 g/m*3 4.4 C 4.8 km/h
275 29-03-2018 22:50:00 4.4 C 5.62 g/m*3 4.4 C 0 km/h
Sensor: Nr:Datum:Temp:Abs-Feuchte:Windchill:Wind:
Aussen-T/F 276 29-03-2018 22:55:00 4.4 C 5.62 g/m*3 4.4 C 0 km/h
277 29-03-2018 23:00:00 4.3 C 5.58 g/m*3 4.3 C 0 km/h
278 29-03-2018 23:05:00 4.3 C 5.64 g/m*3 4.3 C 0 km/h
279 29-03-2018 23:10:00 4.2 C 5.61 g/m*3 4.2 C 0 km/h
280 29-03-2018 23:15:00 4.1 C 5.57 g/m*3 4.1 C 0 km/h
281 29-03-2018 23:20:00 3.9 C 5.49 g/m*3 3.9 C 0 km/h
282 29-03-2018 23:25:00 3.9 C 5.56 g/m*3 3.9 C 0 km/h
283 29-03-2018 23:30:00 3.8 C 5.52 g/m*3 3.8 C 0 km/h
284 29-03-2018 23:35:00 3.7 C 5.48 g/m*3 3.7 C 0 km/h
285 29-03-2018 23:40:00 3.7 C 5.55 g/m*3 3.7 C 0 km/h
286 29-03-2018 23:45:00 3.6 C 5.51 g/m*3 3.6 C 0 km/h
287 29-03-2018 23:50:00 3.5 C 5.47 g/m*3 3.5 C 0 km/h
288 29-03-2018 23:55:00 3.4 C 5.44 g/m*3 3.4 C 0 km/h

Legende:
   Min
   Max


Maximal/Minimal-Werte vom 23.02.2003 - 30.09.2020

Sensor Min Max Avg
Temp
(Aussen-T/F)
-16.4 °C
20-12-2009  01:30:01
40.4 °C
25-07-2019  16:20:00
11.32 °C

Die Daten stammen von einer Davis Vantage Pro 2 Wetter-Station und werden unter Linux mit der Software wview2wettercgi und aufbereitet. Alle Angaben erfolgen ohne Gewähr für ihre Vollständigkeit oder Richtigkeit.
Kontakt: Rainer Krienke krienke@uni-koblenz.de . Meine Webseiten an der Uni Koblenz oder privat.
Version: $Revision: 0.78 $